createdAt,value
2023-05-14T00:00:32.207Z,100.00
2023-05-14T00:02:58.621Z,100.00
2023-05-14T00:05:25.244Z,100.00
2023-05-14T00:07:51.660Z,100.00
2023-05-14T00:10:18.182Z,100.00
2023-05-14T00:12:44.601Z,100.00
2023-05-14T00:15:11.008Z,100.00
2023-05-14T00:17:37.766Z,100.00
2023-05-14T00:20:05.756Z,100.00
2023-05-14T00:22:32.069Z,100.00
2023-05-14T00:24:58.481Z,100.00
2023-05-14T00:27:24.817Z,100.00
2023-05-14T00:29:51.175Z,100.00
2023-05-14T00:32:17.510Z,100.00
2023-05-14T00:34:43.821Z,100.00
2023-05-14T00:37:10.171Z,100.00
2023-05-14T00:39:36.536Z,100.00
2023-05-14T00:42:02.923Z,100.00
2023-05-14T00:44:29.315Z,100.00
2023-05-14T00:46:55.746Z,100.00
2023-05-14T00:49:22.401Z,100.00
2023-05-14T00:51:48.970Z,100.00
2023-05-14T00:54:19.732Z,100.00
2023-05-14T00:56:46.871Z,100.00
2023-05-14T00:59:13.976Z,100.00
2023-05-14T01:01:40.492Z,100.00
2023-05-14T01:04:07.654Z,100.00
2023-05-14T01:06:43.292Z,100.00
2023-05-14T01:09:22.917Z,100.00
2023-05-14T01:12:07.599Z,100.00
2023-05-14T01:14:58.850Z,100.00
2023-05-14T01:17:28.452Z,100.00
2023-05-14T01:19:55.317Z,100.00
2023-05-14T01:22:21.681Z,100.00
2023-05-14T01:24:48.041Z,100.00
2023-05-14T01:27:35.516Z,100.00
2023-05-14T01:30:19.294Z,100.00
2023-05-14T01:32:50.129Z,100.00
2023-05-14T01:35:18.237Z,100.00
2023-05-14T01:37:47.092Z,100.00
2023-05-14T01:40:13.655Z,100.00
2023-05-14T01:42:41.029Z,100.00
2023-05-14T01:45:08.514Z,100.00
2023-05-14T01:47:34.873Z,100.00
2023-05-14T01:50:01.266Z,100.00
2023-05-14T01:52:27.624Z,100.00
2023-05-14T01:54:53.953Z,100.00
2023-05-14T01:57:20.301Z,100.00
2023-05-14T01:59:46.676Z,100.00
2023-05-14T02:02:13.035Z,100.00
2023-05-14T02:04:39.428Z,100.00
2023-05-14T02:07:05.756Z,100.00
2023-05-14T02:09:32.086Z,100.00
2023-05-14T02:11:58.456Z,100.00
2023-05-14T02:14:24.829Z,100.00
2023-05-14T02:16:51.171Z,100.00
2023-05-14T02:19:17.886Z,100.00
2023-05-14T02:21:44.611Z,100.00
2023-05-14T02:24:10.986Z,100.00
2023-05-14T02:26:37.300Z,100.00
2023-05-14T02:29:03.671Z,100.00
2023-05-14T02:31:30.020Z,100.00
2023-05-14T02:33:56.426Z,100.00
2023-05-14T02:36:22.788Z,100.00
2023-05-14T02:38:49.101Z,100.00
2023-05-14T02:41:15.434Z,100.00
2023-05-14T02:43:41.804Z,100.00
2023-05-14T02:46:08.178Z,100.00
2023-05-14T02:48:34.544Z,100.00
2023-05-14T02:51:00.969Z,100.00
2023-05-14T02:53:27.359Z,100.00
2023-05-14T02:55:53.818Z,100.00
2023-05-14T02:58:20.131Z,100.00
2023-05-14T03:00:52.249Z,100.00
2023-05-14T03:03:19.782Z,100.00
2023-05-14T03:05:46.456Z,100.00
2023-05-14T03:08:12.807Z,100.00
2023-05-14T03:10:39.175Z,100.00
2023-05-14T03:13:05.497Z,100.00
2023-05-14T03:15:31.852Z,100.00
2023-05-14T03:17:58.256Z,100.00
2023-05-14T03:20:25.055Z,100.00
2023-05-14T03:22:51.837Z,100.00
2023-05-14T03:25:18.235Z,100.00
2023-05-14T03:27:44.552Z,100.00
2023-05-14T03:30:11.506Z,100.00
2023-05-14T03:32:37.919Z,100.00
2023-05-14T03:35:04.677Z,100.00
2023-05-14T03:37:31.070Z,100.00
2023-05-14T03:39:57.378Z,100.00
2023-05-14T03:42:23.741Z,100.00
2023-05-14T03:44:50.056Z,100.00
2023-05-14T03:47:16.373Z,100.00
2023-05-14T03:49:42.691Z,100.00
2023-05-14T03:52:09.072Z,100.00
2023-05-14T03:54:35.417Z,100.00
2023-05-14T03:57:01.825Z,100.00
2023-05-14T03:59:28.151Z,100.00
2023-05-14T04:01:54.505Z,100.00
2023-05-14T04:04:20.861Z,100.00
2023-05-14T04:06:47.231Z,100.00
2023-05-14T04:09:13.581Z,100.00
2023-05-14T04:11:39.945Z,100.00
2023-05-14T04:14:06.449Z,100.00
2023-05-14T04:16:32.815Z,100.00
2023-05-14T04:19:02.315Z,100.00
2023-05-14T04:21:28.698Z,100.00
2023-05-14T04:23:55.053Z,100.00
2023-05-14T04:26:21.382Z,100.00
2023-05-14T04:28:47.804Z,100.00
2023-05-14T04:31:15.909Z,100.00
2023-05-14T04:33:42.294Z,100.00
2023-05-14T04:36:08.840Z,100.00
2023-05-14T04:38:35.169Z,100.00
2023-05-14T04:41:01.488Z,100.00
2023-05-14T04:43:27.814Z,100.00
2023-05-14T04:45:54.196Z,100.00
2023-05-14T04:48:20.521Z,100.00
2023-05-14T04:50:46.841Z,100.00
2023-05-14T04:53:13.229Z,100.00
2023-05-14T04:55:39.613Z,100.00
2023-05-14T04:58:05.952Z,100.00
2023-05-14T05:00:32.370Z,100.00
2023-05-14T05:02:58.888Z,100.00
2023-05-14T05:05:25.466Z,100.00
2023-05-14T05:07:51.835Z,100.00
2023-05-14T05:10:18.249Z,100.00
2023-05-14T05:12:44.564Z,100.00
2023-05-14T05:15:11.127Z,100.00
2023-05-14T05:17:37.532Z,100.00
2023-05-14T05:20:04.364Z,100.00
2023-05-14T05:22:30.972Z,100.00
2023-05-14T05:24:57.488Z,100.00
2023-05-14T05:27:23.827Z,100.00
2023-05-14T05:29:50.179Z,100.00
2023-05-14T05:32:16.528Z,100.00
2023-05-14T05:34:42.898Z,100.00
2023-05-14T05:37:09.274Z,98.73
2023-05-14T05:39:35.631Z,98.31
2023-05-14T05:42:02.486Z,94.08
2023-05-14T05:44:28.825Z,92.47
2023-05-14T05:46:55.174Z,91.11
2023-05-14T05:49:21.583Z,88.11
2023-05-14T05:51:47.957Z,86.50
2023-05-14T05:54:14.281Z,87.35
2023-05-14T05:56:40.768Z,86.45
2023-05-14T05:59:07.118Z,83.25
2023-05-14T06:01:33.568Z,83.52
2023-05-14T06:03:59.865Z,79.40
2023-05-14T06:06:26.195Z,77.91
2023-05-14T06:08:52.516Z,77.50
2023-05-14T06:11:18.886Z,76.88
2023-05-14T06:13:45.206Z,76.39
2023-05-14T06:16:11.566Z,73.28
2023-05-14T06:18:38.074Z,73.13
2023-05-14T06:21:04.512Z,73.85
2023-05-14T06:23:30.896Z,72.61
2023-05-14T06:25:57.217Z,72.98
2023-05-14T06:28:23.597Z,72.62
2023-05-14T06:30:50.195Z,72.96
2023-05-14T06:33:17.415Z,75.03
2023-05-14T06:36:05.243Z,73.70
2023-05-14T06:38:31.652Z,73.96
2023-05-14T06:40:57.990Z,75.78
2023-05-14T06:43:24.355Z,77.37
2023-05-14T06:45:51.817Z,77.96
2023-05-14T06:48:19.013Z,77.97
2023-05-14T06:50:46.522Z,78.13
2023-05-14T06:53:13.196Z,76.31
2023-05-14T06:55:39.835Z,77.50
2023-05-14T06:58:07.481Z,76.31
2023-05-14T07:00:33.888Z,73.44
2023-05-14T07:03:00.352Z,72.92
2023-05-14T07:05:26.760Z,71.75
2023-05-14T07:07:53.065Z,70.75
2023-05-14T07:10:19.439Z,70.04
2023-05-14T07:12:45.860Z,68.78
2023-05-14T07:15:12.192Z,70.28
2023-05-14T07:17:38.632Z,69.34
2023-05-14T07:20:05.575Z,68.25
2023-05-14T07:22:31.929Z,69.19
2023-05-14T07:24:58.288Z,64.90
2023-05-14T07:27:24.635Z,65.20
2023-05-14T07:29:51.108Z,65.50
2023-05-14T07:32:17.466Z,63.90
2023-05-14T07:34:43.846Z,66.76
2023-05-14T07:37:10.301Z,68.21
2023-05-14T07:39:36.652Z,66.73
2023-05-14T07:42:04.575Z,65.15
2023-05-14T07:44:30.894Z,65.79
2023-05-14T07:46:57.320Z,62.99
2023-05-14T07:49:23.674Z,60.28
2023-05-14T07:51:50.023Z,57.52
2023-05-14T07:54:16.832Z,54.26
2023-05-14T07:56:43.427Z,56.41
2023-05-14T07:59:09.815Z,56.45
2023-05-14T08:01:37.825Z,53.33
2023-05-14T08:04:05.738Z,54.66
2023-05-14T08:06:32.184Z,54.26
2023-05-14T08:08:58.724Z,55.30
2023-05-14T08:11:25.124Z,52.03
2023-05-14T08:13:51.488Z,50.63
2023-05-14T08:16:17.924Z,50.46
2023-05-14T08:18:44.396Z,53.85
2023-05-14T08:21:10.761Z,51.49
2023-05-14T08:23:37.110Z,50.26
2023-05-14T08:26:03.488Z,49.31
2023-05-14T08:28:29.800Z,51.76
2023-05-14T08:30:56.171Z,50.81
2023-05-14T08:33:22.523Z,47.56
2023-05-14T08:35:51.604Z,45.24
2023-05-14T08:38:17.959Z,48.39
2023-05-14T08:40:49.172Z,48.92
2023-05-14T08:43:20.132Z,47.04
2023-05-14T08:45:49.517Z,47.50
2023-05-14T08:48:18.996Z,47.63
2023-05-14T08:50:45.539Z,45.96
2023-05-14T08:53:11.848Z,44.33
2023-05-14T08:55:38.189Z,47.31
2023-05-14T08:58:04.555Z,49.50
2023-05-14T09:00:30.935Z,48.26
2023-05-14T09:02:58.941Z,47.61
2023-05-14T09:05:25.690Z,44.98
2023-05-14T09:07:52.074Z,43.55
2023-05-14T09:10:18.760Z,45.29
2023-05-14T09:12:45.109Z,46.08
2023-05-14T09:15:11.485Z,44.63
2023-05-14T09:17:37.921Z,45.87
2023-05-14T09:20:04.832Z,46.71
2023-05-14T09:22:31.221Z,42.86
2023-05-14T09:25:08.761Z,44.56
2023-05-14T09:27:36.080Z,45.66
2023-05-14T09:30:13.147Z,46.97
2023-05-14T09:32:41.860Z,44.81
2023-05-14T09:35:18.071Z,47.97
2023-05-14T09:37:49.892Z,49.02
2023-05-14T09:40:17.354Z,47.03
2023-05-14T09:42:43.719Z,46.19
2023-05-14T09:45:10.807Z,48.68
2023-05-14T09:47:39.133Z,46.39
2023-05-14T09:50:06.634Z,49.77
2023-05-14T09:52:33.069Z,47.76
2023-05-14T09:55:00.678Z,53.10
2023-05-14T09:57:27.362Z,50.55
2023-05-14T09:59:54.036Z,52.49
2023-05-14T10:02:25.756Z,54.45
2023-05-14T10:04:54.290Z,53.48
2023-05-14T10:07:29.120Z,48.75
2023-05-14T10:10:01.800Z,39.42
2023-05-14T10:12:32.422Z,46.26
2023-05-14T10:15:06.794Z,50.07
2023-05-14T10:17:36.158Z,51.18
2023-05-14T10:20:03.465Z,54.13
2023-05-14T10:22:33.698Z,51.27
2023-05-14T10:25:00.833Z,53.17
2023-05-14T10:27:27.561Z,49.17
2023-05-14T10:29:55.622Z,55.62
2023-05-14T10:32:23.392Z,50.27
2023-05-14T10:34:49.820Z,47.70
2023-05-14T10:37:19.434Z,51.34
2023-05-14T10:39:48.091Z,53.96
2023-05-14T10:42:18.819Z,50.46
2023-05-14T10:44:54.473Z,46.93
2023-05-14T10:47:21.855Z,46.31
2023-05-14T10:49:49.097Z,48.93
2023-05-14T10:52:19.182Z,50.58
2023-05-14T10:55:02.717Z,46.01
2023-05-14T10:57:31.988Z,48.85
2023-05-14T11:00:00.257Z,46.49
2023-05-14T11:02:27.647Z,50.55
2023-05-14T11:04:59.614Z,45.17
2023-05-14T11:07:40.212Z,48.00
2023-05-14T11:10:13.769Z,42.48
2023-05-14T11:12:42.110Z,48.39
2023-05-14T11:15:10.972Z,43.41
2023-05-14T11:17:38.586Z,41.79
2023-05-14T11:20:05.617Z,44.26
2023-05-14T11:22:32.224Z,43.54
2023-05-14T11:24:58.580Z,43.71
2023-05-14T11:27:25.003Z,42.23
2023-05-14T11:29:51.411Z,42.25
2023-05-14T11:32:19.024Z,43.58
2023-05-14T11:34:46.447Z,43.32
2023-05-14T11:37:15.383Z,43.19
2023-05-14T11:39:50.607Z,42.20
2023-05-14T11:42:17.023Z,45.15
2023-05-14T11:44:43.525Z,44.42
2023-05-14T11:47:11.431Z,44.98
2023-05-14T11:49:38.168Z,47.86
2023-05-14T11:52:06.575Z,46.93
2023-05-14T11:54:34.211Z,47.67
2023-05-14T11:57:07.105Z,47.96
2023-05-14T11:59:33.567Z,49.10
2023-05-14T12:02:00.144Z,49.81
2023-05-14T12:04:26.664Z,50.88
2023-05-14T12:06:53.252Z,49.48
2023-05-14T12:09:21.228Z,50.32
2023-05-14T12:11:48.958Z,50.00
2023-05-14T12:14:17.339Z,49.36
2023-05-14T12:16:44.789Z,49.41
2023-05-14T12:19:12.284Z,52.08
2023-05-14T12:21:38.926Z,52.32
2023-05-14T12:24:05.744Z,48.03
2023-05-14T12:26:34.918Z,47.69
2023-05-14T12:29:03.069Z,47.40
2023-05-14T12:31:30.621Z,47.99
2023-05-14T12:33:57.379Z,45.62
2023-05-14T12:36:24.124Z,47.35
2023-05-14T12:38:50.786Z,44.79
2023-05-14T12:41:17.982Z,45.77
2023-05-14T12:43:44.775Z,46.43
2023-05-14T12:46:11.253Z,46.15
2023-05-14T12:48:37.592Z,42.50
2023-05-14T12:51:03.980Z,46.99
2023-05-14T12:53:30.322Z,47.03
2023-05-14T12:55:56.728Z,44.05
2023-05-14T12:58:23.150Z,43.06
2023-05-14T13:00:49.501Z,43.38
2023-05-14T13:03:16.076Z,40.44
2023-05-14T13:05:42.446Z,42.19
2023-05-14T13:08:09.611Z,39.93
2023-05-14T13:10:35.991Z,40.62
2023-05-14T13:13:02.386Z,40.33
2023-05-14T13:15:28.777Z,38.83
2023-05-14T13:17:55.209Z,41.10
2023-05-14T13:20:21.581Z,38.44
2023-05-14T13:22:47.969Z,38.50
2023-05-14T13:25:14.342Z,35.74
2023-05-14T13:27:40.725Z,42.82
2023-05-14T13:30:08.616Z,42.06
2023-05-14T13:32:35.012Z,38.81
2023-05-14T13:35:01.438Z,36.70
2023-05-14T13:37:28.298Z,38.73
2023-05-14T13:39:54.764Z,38.89
2023-05-14T13:42:21.119Z,38.22
2023-05-14T13:44:47.453Z,41.18
2023-05-14T13:47:13.856Z,40.74
2023-05-14T13:49:40.185Z,37.37
2023-05-14T13:52:06.782Z,39.76
2023-05-14T13:54:33.103Z,41.71
2023-05-14T13:56:59.456Z,39.70
2023-05-14T13:59:25.965Z,39.69
2023-05-14T14:01:52.353Z,42.04
2023-05-14T14:04:18.787Z,42.69
2023-05-14T14:06:45.327Z,42.82
2023-05-14T14:09:11.725Z,43.76
2023-05-14T14:11:38.038Z,40.29
2023-05-14T14:14:04.377Z,39.19
2023-05-14T14:16:30.794Z,40.24
2023-05-14T14:18:57.256Z,40.99
2023-05-14T14:21:23.865Z,42.30
2023-05-14T14:23:50.274Z,38.55
2023-05-14T14:26:16.654Z,36.65
2023-05-14T14:28:43.026Z,36.05
2023-05-14T14:31:09.430Z,35.64
2023-05-14T14:33:35.898Z,38.83
2023-05-14T14:36:02.216Z,40.35
2023-05-14T14:38:28.540Z,42.08
2023-05-14T14:40:54.916Z,40.75
2023-05-14T14:43:21.294Z,41.15
2023-05-14T14:45:49.042Z,39.68
2023-05-14T14:48:26.404Z,42.07
2023-05-14T14:50:53.325Z,39.83
2023-05-14T14:53:20.906Z,40.38
2023-05-14T14:55:48.329Z,41.59
2023-05-14T14:58:14.826Z,46.01
2023-05-14T15:00:41.226Z,47.72
2023-05-14T15:03:08.163Z,51.17
2023-05-14T15:05:34.612Z,49.04
2023-05-14T15:08:01.117Z,46.54
2023-05-14T15:10:28.238Z,48.25
2023-05-14T15:12:58.018Z,48.24
2023-05-14T15:15:25.241Z,47.85
2023-05-14T15:17:52.191Z,47.02
2023-05-14T15:20:18.618Z,47.40
2023-05-14T15:22:45.116Z,47.81
2023-05-14T15:25:11.459Z,49.92
2023-05-14T15:27:37.803Z,47.48
2023-05-14T15:30:04.763Z,48.74
2023-05-14T15:32:31.194Z,47.02
2023-05-14T15:34:57.595Z,48.18
2023-05-14T15:37:24.259Z,44.88
2023-05-14T15:39:50.625Z,46.97
2023-05-14T15:42:16.988Z,48.88
2023-05-14T15:44:43.337Z,47.55
2023-05-14T15:47:09.671Z,46.99
2023-05-14T15:49:35.981Z,48.77
2023-05-14T15:52:02.346Z,50.14
2023-05-14T15:54:28.770Z,49.53
2023-05-14T15:56:55.919Z,50.88
2023-05-14T15:59:22.225Z,50.52
2023-05-14T16:01:48.596Z,51.17
2023-05-14T16:04:14.906Z,52.43
2023-05-14T16:06:41.260Z,51.76
2023-05-14T16:09:08.165Z,53.38
2023-05-14T16:11:34.483Z,50.29
2023-05-14T16:14:00.813Z,52.05
2023-05-14T16:16:27.204Z,50.98
2023-05-14T16:18:53.599Z,49.44
2023-05-14T16:21:19.937Z,49.39
2023-05-14T16:23:46.281Z,50.31
2023-05-14T16:26:12.675Z,49.76
2023-05-14T16:28:39.002Z,50.82
2023-05-14T16:31:05.372Z,51.87
2023-05-14T16:33:31.849Z,53.11
2023-05-14T16:35:58.296Z,53.73
2023-05-14T16:38:24.639Z,55.69
2023-05-14T16:40:50.972Z,55.12
2023-05-14T16:43:17.267Z,58.10
2023-05-14T16:45:43.814Z,56.71
2023-05-14T16:48:10.226Z,58.20
2023-05-14T16:50:36.605Z,59.41
2023-05-14T16:53:02.962Z,58.53
2023-05-14T16:55:29.310Z,58.52
2023-05-14T16:57:55.601Z,59.43
2023-05-14T17:00:21.987Z,60.03
2023-05-14T17:02:48.359Z,60.91
2023-05-14T17:05:14.923Z,60.84
2023-05-14T17:07:41.268Z,60.29
2023-05-14T17:10:08.090Z,61.95
2023-05-14T17:12:34.508Z,66.41
2023-05-14T17:15:01.954Z,68.53
2023-05-14T17:17:30.083Z,72.92
2023-05-14T17:19:56.429Z,73.87
2023-05-14T17:22:22.752Z,76.08
2023-05-14T17:24:49.108Z,76.25
2023-05-14T17:27:16.653Z,77.82
2023-05-14T17:29:43.196Z,78.44
2023-05-14T17:32:09.632Z,79.36
2023-05-14T17:34:35.964Z,81.17
2023-05-14T17:37:02.319Z,80.86
2023-05-14T17:39:28.682Z,80.88
2023-05-14T17:41:55.047Z,81.97
2023-05-14T17:44:21.371Z,81.51
2023-05-14T17:46:47.780Z,82.68
2023-05-14T17:49:14.141Z,82.59
2023-05-14T17:51:40.465Z,83.73
2023-05-14T17:54:06.767Z,85.21
2023-05-14T17:56:33.378Z,85.64
2023-05-14T17:59:00.150Z,86.17
2023-05-14T18:01:26.564Z,86.22
2023-05-14T18:03:52.991Z,87.27
2023-05-14T18:06:19.431Z,88.28
2023-05-14T18:08:45.731Z,88.99
2023-05-14T18:11:12.141Z,89.91
2023-05-14T18:13:38.477Z,90.33
2023-05-14T18:16:05.144Z,90.24
2023-05-14T18:18:31.569Z,91.14
2023-05-14T18:20:57.903Z,91.14
2023-05-14T18:23:24.243Z,91.82
2023-05-14T18:25:51.014Z,92.23
2023-05-14T18:28:17.386Z,92.86
2023-05-14T18:30:43.789Z,93.19
2023-05-14T18:33:10.215Z,93.11
2023-05-14T18:35:36.700Z,93.23
2023-05-14T18:38:03.200Z,93.42
2023-05-14T18:40:30.051Z,94.62
2023-05-14T18:42:56.363Z,94.63
2023-05-14T18:45:23.020Z,95.03
2023-05-14T18:47:50.476Z,95.06
2023-05-14T18:50:16.933Z,96.28
2023-05-14T18:52:43.303Z,96.63
2023-05-14T18:55:09.636Z,96.94
2023-05-14T18:57:36.954Z,97.04
2023-05-14T19:00:03.623Z,97.67
2023-05-14T19:02:30.886Z,97.73
2023-05-14T19:04:57.281Z,98.37
2023-05-14T19:07:23.632Z,98.87
2023-05-14T19:09:50.360Z,99.40
2023-05-14T19:12:16.703Z,99.80
2023-05-14T19:14:43.080Z,100.00
2023-05-14T19:17:09.509Z,100.00
2023-05-14T19:19:35.848Z,100.00
2023-05-14T19:22:02.175Z,100.00
2023-05-14T19:24:28.476Z,100.00
2023-05-14T19:26:54.805Z,100.00
2023-05-14T19:29:21.133Z,100.00
2023-05-14T19:31:47.503Z,100.00
2023-05-14T19:34:13.924Z,100.00
2023-05-14T19:36:40.318Z,100.00
2023-05-14T19:39:06.680Z,100.00
2023-05-14T19:41:33.046Z,100.00
2023-05-14T19:43:59.348Z,100.00
2023-05-14T19:46:26.133Z,100.00
2023-05-14T19:48:52.527Z,100.00
2023-05-14T19:51:18.911Z,100.00
2023-05-14T19:53:45.237Z,100.00
2023-05-14T19:56:11.694Z,100.00
2023-05-14T19:58:38.029Z,100.00
2023-05-14T20:01:04.466Z,100.00
2023-05-14T20:03:31.892Z,100.00
2023-05-14T20:05:58.263Z,100.00
2023-05-14T20:08:24.737Z,100.00
2023-05-14T20:10:51.062Z,100.00
2023-05-14T20:13:17.387Z,100.00
2023-05-14T20:15:43.738Z,100.00
2023-05-14T20:18:10.093Z,100.00
2023-05-14T20:20:36.482Z,100.00
2023-05-14T20:23:02.801Z,100.00
2023-05-14T20:25:29.388Z,100.00
2023-05-14T20:27:55.809Z,100.00
2023-05-14T20:30:22.294Z,100.00
2023-05-14T20:32:48.756Z,100.00
2023-05-14T20:35:15.121Z,100.00
2023-05-14T20:37:41.419Z,100.00
2023-05-14T20:40:08.547Z,100.00
2023-05-14T20:42:34.894Z,100.00
2023-05-14T20:45:01.211Z,100.00
2023-05-14T20:47:27.592Z,100.00
2023-05-14T20:49:53.897Z,100.00
2023-05-14T20:52:20.210Z,100.00
2023-05-14T20:54:46.588Z,100.00
2023-05-14T20:57:13.094Z,100.00
2023-05-14T20:59:39.424Z,100.00
2023-05-14T21:02:05.893Z,100.00
2023-05-14T21:04:33.412Z,100.00
2023-05-14T21:07:00.253Z,100.00
2023-05-14T21:09:26.734Z,100.00
2023-05-14T21:11:54.060Z,100.00
2023-05-14T21:14:20.404Z,100.00
2023-05-14T21:16:47.022Z,100.00
2023-05-14T21:19:15.363Z,100.00
2023-05-14T21:21:41.855Z,100.00
2023-05-14T21:24:08.176Z,100.00
2023-05-14T21:26:36.202Z,100.00
2023-05-14T21:29:03.249Z,100.00
2023-05-14T21:31:29.668Z,100.00
2023-05-14T21:33:56.044Z,100.00
2023-05-14T21:36:22.644Z,100.00
2023-05-14T21:38:48.994Z,100.00
2023-05-14T21:41:15.305Z,100.00
2023-05-14T21:43:41.645Z,100.00
2023-05-14T21:46:08.051Z,100.00
2023-05-14T21:48:34.547Z,100.00
2023-05-14T21:51:00.992Z,100.00
2023-05-14T21:53:27.377Z,100.00
2023-05-14T21:55:53.765Z,100.00
2023-05-14T21:58:20.102Z,100.00
2023-05-14T22:00:46.591Z,100.00
2023-05-14T22:03:13.010Z,100.00
2023-05-14T22:05:39.459Z,100.00
2023-05-14T22:08:05.866Z,100.00
2023-05-14T22:10:32.221Z,100.00
2023-05-14T22:12:58.593Z,100.00
2023-05-14T22:15:25.225Z,100.00
2023-05-14T22:17:51.852Z,100.00
2023-05-14T22:20:18.271Z,100.00
2023-05-14T22:22:44.619Z,100.00
2023-05-14T22:25:11.065Z,100.00
2023-05-14T22:27:37.419Z,100.00
2023-05-14T22:30:04.142Z,100.00
2023-05-14T22:32:30.500Z,100.00
2023-05-14T22:34:56.833Z,100.00
2023-05-14T22:37:23.177Z,100.00
2023-05-14T22:39:50.105Z,100.00
2023-05-14T22:42:16.451Z,100.00
2023-05-14T22:44:42.794Z,100.00
2023-05-14T22:47:09.200Z,100.00
2023-05-14T22:49:35.587Z,100.00
2023-05-14T22:52:01.921Z,100.00
2023-05-14T22:54:28.279Z,100.00
2023-05-14T22:56:54.651Z,100.00
2023-05-14T22:59:22.754Z,100.00
2023-05-14T23:01:50.084Z,100.00
2023-05-14T23:04:16.664Z,100.00
2023-05-14T23:06:43.014Z,100.00
2023-05-14T23:09:09.366Z,100.00
2023-05-14T23:11:35.725Z,100.00
2023-05-14T23:14:02.056Z,100.00
2023-05-14T23:16:28.426Z,100.00
2023-05-14T23:18:55.569Z,100.00
2023-05-14T23:21:22.028Z,100.00
2023-05-14T23:23:48.387Z,100.00
2023-05-14T23:26:14.828Z,100.00
2023-05-14T23:28:41.250Z,100.00
2023-05-14T23:31:07.552Z,100.00
2023-05-14T23:33:33.858Z,100.00
2023-05-14T23:36:00.258Z,100.00
2023-05-14T23:38:27.013Z,100.00
2023-05-14T23:40:53.334Z,100.00
2023-05-14T23:43:19.681Z,100.00
2023-05-14T23:45:46.054Z,100.00
2023-05-14T23:48:12.457Z,100.00
2023-05-14T23:50:38.955Z,100.00
2023-05-14T23:53:05.359Z,100.00
2023-05-14T23:55:31.793Z,100.00
2023-05-14T23:57:58.180Z,100.00
